首页
METAR-TAF:

METAR-TAF

机场 :

德黑兰, 伊朗

梅赫拉巴德國際機場

纬度: 35-41N, 经度: 051-21E, 海拔: 1204米

当前天气观测

该预报发布于28分钟前的14:00 UTC
风速6节,风向南转南东
温度 10°C
湿度 37%
气压 1018 hPa
能見度: 5000
多云层高于10000英尺
多云层高于19000英尺

METAR: OIII 221400Z 16006KT 5000 HZ BKN100 BKN190 10/M04 Q1018 A3006

时间: 17:58 (14:28 UTC)

预报

该预报发布于3小时和28分钟前的11:00 UTC
预报有效从22日的 12点(UTC)到 23日的 18点(UTC)
风速6节,风向东转东南
能見度: 5000
成为
从 22日的 14点(UTC)到 22日的 16点(UTC)
能見度: 7000
成为
从 23日的 02点(UTC)到 23日的 04点(UTC)
能見度: 4000
成为
从 23日的 10点(UTC)到 23日的 12点(UTC)
风速10节,风向西转西南
能見度: 7000
散云层高于4000英尺
多云层高于10000英尺

TAF: OIII 221100Z 2212/2318 12003MPS 5000 HZ NSC BECMG 2214/2216 7000 BECMG 2302/2304 4000 HZ BECMG 2310/2312 24005MPS 7000 SCT040 BKN100

超过4000个机场的气象观测和天气预报(METAR&TAF报告)。

可查询的气象台以黄色和红色小点在地图上表示。

将鼠标移到小点上方,可查看气象台名称。

然后点击查看天气观测和预报。

如需切换地图:点击带黑十字的绿色按钮放大地图;点击带横线的绿色按钮缩小地图;或者点击绿色箭头查看邻近地区的地图。


METAR-TAF: